sensor_id;sensor_type;location;lat;lon;timestamp;P1;durP1;ratioP1;P2;durP2;ratioP2
76536;SDS011;65381;51.254;15.592;2024-01-10T17:33:40;97.17;;;40.13;;
76536;SDS011;65381;51.254;15.592;2024-01-10T17:36:09;95.00;;;39.42;;
76536;SDS011;65381;51.254;15.592;2024-01-10T17:38:37;76.43;;;33.58;;
76536;SDS011;65381;51.254;15.592;2024-01-10T17:41:06;97.85;;;40.60;;
76536;SDS011;65381;51.254;15.592;2024-01-10T17:43:34;82.90;;;32.65;;
76536;SDS011;65381;51.254;15.592;2024-01-10T17:46:03;83.70;;;37.28;;
76536;SDS011;65381;51.254;15.592;2024-01-10T17:54:54;99.00;;;40.72;;
76536;SDS011;65381;51.254;15.592;2024-01-10T17:57:22;97.00;;;41.42;;
76536;SDS011;65381;51.254;15.592;2024-01-10T17:59:54;99.50;;;38.65;;
76536;SDS011;65381;51.254;15.592;2024-01-10T18:02:23;97.93;;;40.55;;
76536;SDS011;65381;51.254;15.592;2024-01-10T18:04:51;97.70;;;40.88;;
76536;SDS011;65381;51.254;15.592;2024-01-10T18:07:19;97.13;;;41.33;;
76536;SDS011;65381;51.254;15.592;2024-01-10T18:09:47;98.53;;;40.35;;
76536;SDS011;65381;51.254;15.592;2024-01-10T18:12:15;100.18;;;42.80;;
76536;SDS011;65381;51.254;15.592;2024-01-10T18:14:43;102.25;;;40.35;;
76536;SDS011;65381;51.254;15.592;2024-01-10T18:17:11;101.70;;;42.53;;
76536;SDS011;65381;51.254;15.592;2024-01-10T18:19:39;96.57;;;39.78;;
76536;SDS011;65381;51.254;15.592;2024-01-10T18:22:08;93.30;;;40.20;;
76536;SDS011;65381;51.254;15.592;2024-01-10T18:24:36;96.78;;;41.70;;
76536;SDS011;65381;51.254;15.592;2024-01-10T18:27:05;107.47;;;42.08;;
76536;SDS011;65381;51.254;15.592;2024-01-10T18:29:32;108.57;;;43.38;;
76536;SDS011;65381;51.254;15.592;2024-01-10T18:32:01;104.65;;;45.58;;
76536;SDS011;65381;51.254;15.592;2024-01-10T18:34:29;108.68;;;43.00;;
76536;SDS011;65381;51.254;15.592;2024-01-10T18:36:57;111.03;;;44.75;;
76536;SDS011;65381;51.254;15.592;2024-01-10T18:39:24;110.25;;;46.05;;
76536;SDS011;65381;51.254;15.592;2024-01-10T18:44:41;134.23;;;49.53;;
76536;SDS011;65381;51.254;15.592;2024-01-10T18:47:10;145.48;;;52.10;;
76536;SDS011;65381;51.254;15.592;2024-01-10T18:49:37;147.50;;;49.38;;
76536;SDS011;65381;51.254;15.592;2024-01-10T18:52:06;151.13;;;52.47;;
76536;SDS011;65381;51.254;15.592;2024-01-10T18:54:34;145.85;;;53.08;;
76536;SDS011;65381;51.254;15.592;2024-01-10T19:10:14;129.55;;;47.10;;
76536;SDS011;65381;51.254;15.592;2024-01-10T19:12:43;123.60;;;46.25;;
76536;SDS011;65381;51.254;15.592;2024-01-10T19:15:11;120.45;;;45.65;;
76536;SDS011;65381;51.254;15.592;2024-01-10T19:20:42;130.60;;;45.03;;
76536;SDS011;65381;51.254;15.592;2024-01-10T19:23:11;132.05;;;45.03;;
76536;SDS011;65381;51.254;15.592;2024-01-10T19:25:39;125.72;;;47.33;;
76536;SDS011;65381;51.254;15.592;2024-01-10T19:28:08;134.15;;;49.50;;
76536;SDS011;65381;51.254;15.592;2024-01-10T19:30:36;129.35;;;47.00;;
76536;SDS011;65381;51.254;15.592;2024-01-10T19:33:04;122.97;;;47.08;;
76536;SDS011;65381;51.254;15.592;2024-01-10T19:35:32;127.93;;;46.15;;
76536;SDS011;65381;51.254;15.592;2024-01-10T19:38:02;131.57;;;45.90;;
76536;SDS011;65381;51.254;15.592;2024-01-10T19:40:30;136.43;;;48.70;;
76536;SDS011;65381;51.254;15.592;2024-01-10T19:42:59;133.70;;;48.25;;
76536;SDS011;65381;51.254;15.592;2024-01-10T19:45:27;132.57;;;48.50;;
76536;SDS011;65381;51.254;15.592;2024-01-10T19:47:55;134.45;;;48.53;;
76536;SDS011;65381;51.254;15.592;2024-01-10T19:50:23;129.52;;;47.53;;
76536;SDS011;65381;51.254;15.592;2024-01-10T19:52:51;135.57;;;47.30;;
76536;SDS011;65381;51.254;15.592;2024-01-10T19:55:19;136.65;;;48.40;;
76536;SDS011;65381;51.254;15.592;2024-01-10T19:57:47;135.75;;;49.78;;
76536;SDS011;65381;51.254;15.592;2024-01-10T20:00:15;136.60;;;49.05;;
76536;SDS011;65381;51.254;15.592;2024-01-10T20:02:44;129.10;;;48.20;;
76536;SDS011;65381;51.254;15.592;2024-01-10T20:05:14;136.20;;;47.53;;
76536;SDS011;65381;51.254;15.592;2024-01-10T20:07:42;130.73;;;48.53;;
76536;SDS011;65381;51.254;15.592;2024-01-10T20:10:10;140.20;;;51.33;;
76536;SDS011;65381;51.254;15.592;2024-01-10T20:12:40;146.77;;;52.28;;
76536;SDS011;65381;51.254;15.592;2024-01-10T20:15:08;143.18;;;52.28;;
76536;SDS011;65381;51.254;15.592;2024-01-10T20:17:36;147.70;;;52.80;;
76536;SDS011;65381;51.254;15.592;2024-01-10T20:20:05;168.00;;;59.72;;
76536;SDS011;65381;51.254;15.592;2024-01-10T20:22:33;149.10;;;55.33;;
76536;SDS011;65381;51.254;15.592;2024-01-10T20:25:03;162.60;;;58.55;;
76536;SDS011;65381;51.254;15.592;2024-01-10T20:27:31;164.75;;;57.22;;
76536;SDS011;65381;51.254;15.592;2024-01-10T20:29:59;160.95;;;58.33;;
76536;SDS011;65381;51.254;15.592;2024-01-10T20:32:27;168.10;;;58.88;;
76536;SDS011;65381;51.254;15.592;2024-01-10T20:34:56;153.40;;;57.05;;
76536;SDS011;65381;51.254;15.592;2024-01-10T20:37:24;162.73;;;56.45;;
76536;SDS011;65381;51.254;15.592;2024-01-10T20:39:52;162.93;;;57.38;;
76536;SDS011;65381;51.254;15.592;2024-01-10T20:42:20;159.13;;;55.30;;
76536;SDS011;65381;51.254;15.592;2024-01-10T20:44:48;153.20;;;56.25;;
76536;SDS011;65381;51.254;15.592;2024-01-10T20:47:16;147.80;;;53.88;;
76536;SDS011;65381;51.254;15.592;2024-01-10T20:49:55;149.38;;;54.80;;
76536;SDS011;65381;51.254;15.592;2024-01-10T20:52:24;146.48;;;53.28;;
76536;SDS011;65381;51.254;15.592;2024-01-10T20:54:52;146.43;;;54.42;;
76536;SDS011;65381;51.254;15.592;2024-01-10T20:57:20;155.05;;;53.30;;
76536;SDS011;65381;51.254;15.592;2024-01-10T20:59:48;137.63;;;53.80;;
76536;SDS011;65381;51.254;15.592;2024-01-10T21:02:21;140.13;;;51.90;;
76536;SDS011;65381;51.254;15.592;2024-01-10T21:04:50;146.23;;;52.60;;
76536;SDS011;65381;51.254;15.592;2024-01-10T21:07:18;145.68;;;54.53;;
76536;SDS011;65381;51.254;15.592;2024-01-10T21:09:46;140.52;;;52.03;;
76536;SDS011;65381;51.254;15.592;2024-01-10T21:12:14;136.98;;;50.60;;
76536;SDS011;65381;51.254;15.592;2024-01-10T21:14:42;130.93;;;50.78;;
76536;SDS011;65381;51.254;15.592;2024-01-10T21:17:12;128.00;;;49.38;;
76536;SDS011;65381;51.254;15.592;2024-01-10T21:19:40;125.43;;;48.95;;
76536;SDS011;65381;51.254;15.592;2024-01-10T21:22:10;129.55;;;49.97;;
76536;SDS011;65381;51.254;15.592;2024-01-10T21:24:41;132.88;;;48.47;;
76536;SDS011;65381;51.254;15.592;2024-01-10T21:27:09;133.68;;;48.10;;
76536;SDS011;65381;51.254;15.592;2024-01-10T21:29:37;123.15;;;46.25;;
76536;SDS011;65381;51.254;15.592;2024-01-10T21:32:05;126.25;;;48.33;;
76536;SDS011;65381;51.254;15.592;2024-01-10T21:34:33;126.47;;;45.80;;
76536;SDS011;65381;51.254;15.592;2024-01-10T21:37:03;123.72;;;46.35;;
76536;SDS011;65381;51.254;15.592;2024-01-10T21:39:30;129.38;;;47.28;;
76536;SDS011;65381;51.254;15.592;2024-01-10T21:41:58;119.65;;;45.95;;
76536;SDS011;65381;51.254;15.592;2024-01-10T21:44:26;124.43;;;47.72;;
76536;SDS011;65381;51.254;15.592;2024-01-10T21:46:55;117.45;;;44.83;;
76536;SDS011;65381;51.254;15.592;2024-01-10T21:49:22;121.07;;;44.15;;
76536;SDS011;65381;51.254;15.592;2024-01-10T21:51:51;124.93;;;44.65;;
76536;SDS011;65381;51.254;15.592;2024-01-10T21:54:18;121.25;;;45.92;;
76536;SDS011;65381;51.254;15.592;2024-01-10T21:56:46;122.63;;;45.70;;
76536;SDS011;65381;51.254;15.592;2024-01-10T21:59:14;115.05;;;45.13;;
76536;SDS011;65381;51.254;15.592;2024-01-10T22:01:42;121.70;;;44.97;;
76536;SDS011;65381;51.254;15.592;2024-01-10T22:04:10;125.22;;;43.17;;
76536;SDS011;65381;51.254;15.592;2024-01-10T22:06:38;117.88;;;45.97;;
76536;SDS011;65381;51.254;15.592;2024-01-10T22:09:06;112.80;;;42.78;;
76536;SDS011;65381;51.254;15.592;2024-01-10T22:11:35;121.85;;;46.78;;
76536;SDS011;65381;51.254;15.592;2024-01-10T22:14:03;122.80;;;44.65;;
76536;SDS011;65381;51.254;15.592;2024-01-10T22:16:31;119.85;;;43.92;;
76536;SDS011;65381;51.254;15.592;2024-01-10T22:18:59;121.57;;;46.15;;
76536;SDS011;65381;51.254;15.592;2024-01-10T22:21:27;113.93;;;43.92;;
76536;SDS011;65381;51.254;15.592;2024-01-10T22:23:55;104.50;;;41.47;;
76536;SDS011;65381;51.254;15.592;2024-01-10T22:26:23;114.50;;;43.78;;
76536;SDS011;65381;51.254;15.592;2024-01-10T22:28:51;118.45;;;44.35;;
76536;SDS011;65381;51.254;15.592;2024-01-10T22:31:19;112.13;;;42.75;;
76536;SDS011;65381;51.254;15.592;2024-01-10T22:33:46;116.43;;;43.55;;
76536;SDS011;65381;51.254;15.592;2024-01-10T22:36:15;115.65;;;43.60;;
76536;SDS011;65381;51.254;15.592;2024-01-10T22:38:42;110.78;;;41.53;;
76536;SDS011;65381;51.254;15.592;2024-01-10T22:41:10;114.03;;;41.90;;
76536;SDS011;65381;51.254;15.592;2024-01-10T22:43:39;111.32;;;42.95;;
76536;SDS011;65381;51.254;15.592;2024-01-10T22:46:07;115.18;;;40.28;;
76536;SDS011;65381;51.254;15.592;2024-01-10T22:48:35;124.03;;;44.28;;
76536;SDS011;65381;51.254;15.592;2024-01-10T22:51:04;120.63;;;43.28;;
76536;SDS011;65381;51.254;15.592;2024-01-10T22:53:31;106.13;;;41.97;;
76536;SDS011;65381;51.254;15.592;2024-01-10T22:56:00;106.38;;;41.92;;
76536;SDS011;65381;51.254;15.592;2024-01-10T22:58:27;109.15;;;41.83;;
76536;SDS011;65381;51.254;15.592;2024-01-10T23:00:59;107.72;;;40.92;;
76536;SDS011;65381;51.254;15.592;2024-01-10T23:03:27;112.57;;;40.72;;
76536;SDS011;65381;51.254;15.592;2024-01-10T23:06:05;106.28;;;39.00;;
76536;SDS011;65381;51.254;15.592;2024-01-10T23:11:02;101.97;;;40.05;;
76536;SDS011;65381;51.254;15.592;2024-01-10T23:13:30;108.63;;;42.03;;
76536;SDS011;65381;51.254;15.592;2024-01-10T23:15:59;110.13;;;42.08;;
76536;SDS011;65381;51.254;15.592;2024-01-10T23:18:26;102.30;;;40.00;;
76536;SDS011;65381;51.254;15.592;2024-01-10T23:20:55;105.03;;;39.97;;
76536;SDS011;65381;51.254;15.592;2024-01-10T23:23:23;109.20;;;41.72;;
76536;SDS011;65381;51.254;15.592;2024-01-10T23:25:51;107.03;;;41.13;;
76536;SDS011;65381;51.254;15.592;2024-01-10T23:28:19;113.45;;;43.38;;
76536;SDS011;65381;51.254;15.592;2024-01-10T23:30:47;111.22;;;42.60;;
76536;SDS011;65381;51.254;15.592;2024-01-10T23:33:15;110.65;;;40.72;;
76536;SDS011;65381;51.254;15.592;2024-01-10T23:35:43;105.78;;;40.80;;
76536;SDS011;65381;51.254;15.592;2024-01-10T23:38:15;109.93;;;41.08;;
76536;SDS011;65381;51.254;15.592;2024-01-10T23:40:44;108.47;;;41.17;;
76536;SDS011;65381;51.254;15.592;2024-01-10T23:43:12;106.45;;;40.60;;
76536;SDS011;65381;51.254;15.592;2024-01-10T23:45:56;109.03;;;40.08;;
76536;SDS011;65381;51.254;15.592;2024-01-10T23:48:24;100.22;;;38.88;;
76536;SDS011;65381;51.254;15.592;2024-01-10T23:50:52;103.40;;;39.05;;
76536;SDS011;65381;51.254;15.592;2024-01-10T23:53:20;101.43;;;39.72;;
76536;SDS011;65381;51.254;15.592;2024-01-10T23:55:48;106.18;;;38.72;;
76536;SDS011;65381;51.254;15.592;2024-01-10T23:58:16;104.95;;;40.83;;
